Time;durP1;ratioP1;P1;durP2;ratioP2;P2;SDS_P1;SDS_P2;PMS_P1;PMS_P2;Temp;Humidity;BMP_temperature;BMP_pressure;BME280_temperature;BME280_humidity;BME280_pressure;Samples;Min_cycle;Max_cycle;Signal;HPM_P1;HPM_P2
2023/04/16 00:01:34;;;;;;;19.77;12.83;;;27.40;99.90;;;;;;5054222;28;20371;-71
2023/04/16 00:04:00;;;;;;;19.70;11.63;;;27.40;99.90;;;;;;5053632;28;20366;-71
2023/04/16 00:06:27;;;;;;;15.85;11.20;;;27.50;99.90;;;;;;5054100;28;20738;-71
2023/04/16 00:08:54;;;;;;;15.02;11.43;;;27.50;99.90;;;;;;5054036;28;20356;-72
2023/04/16 00:11:21;;;;;;;18.77;11.35;;;27.60;99.90;;;;;;5053777;28;20357;-71
2023/04/16 00:13:47;;;;;;;16.13;10.90;;;27.50;99.90;;;;;;5053793;28;20371;-71
2023/04/16 00:16:14;;;;;;;14.70;10.80;;;27.60;99.90;;;;;;5053839;28;20443;-70
2023/04/16 00:18:41;;;;;;;15.85;11.05;;;27.50;99.90;;;;;;5053645;28;20397;-70
2023/04/16 00:21:08;;;;;;;16.83;11.05;;;27.60;99.90;;;;;;5053791;28;20362;-69
2023/04/16 00:23:34;;;;;;;19.75;10.68;;;27.60;99.90;;;;;;5053742;28;20356;-70
2023/04/16 00:26:01;;;;;;;19.25;11.88;;;27.60;99.90;;;;;;5036969;28;20390;-69
2023/04/16 00:28:27;;;;;;;14.98;10.68;;;27.50;99.90;;;;;;5039668;28;20366;-70
2023/04/16 00:30:54;;;;;;;15.60;10.95;;;27.50;99.90;;;;;;5061587;28;20351;-69
2023/04/16 00:33:21;;;;;;;20.15;12.65;;;27.50;99.90;;;;;;5053423;28;20774;-68
2023/04/16 00:35:48;;;;;;;23.25;16.92;;;27.60;99.90;;;;;;5053662;28;20379;-68
2023/04/16 00:38:15;;;;;;;25.58;17.75;;;27.60;99.90;;;;;;5053356;28;20379;-69
2023/04/16 00:40:42;;;;;;;51.72;39.17;;;27.60;99.90;;;;;;5049939;28;21045;-72
2023/04/16 00:43:08;;;;;;;15.80;11.98;;;27.60;99.90;;;;;;5033879;28;20853;-69
2023/04/16 00:45:35;;;;;;;15.88;11.35;;;27.70;99.90;;;;;;5043814;28;20393;-69
2023/04/16 00:48:03;;;;;;;15.32;9.70;;;27.70;99.90;;;;;;5042183;28;20876;-70
2023/04/16 00:50:29;;;;;;;16.00;11.13;;;27.70;99.90;;;;;;5033401;28;20377;-70
2023/04/16 00:52:57;;;;;;;16.10;10.27;;;27.80;99.90;;;;;;5033178;28;20865;-70
2023/04/16 00:55:23;;;;;;;14.77;11.25;;;27.80;99.90;;;;;;5032981;28;20362;-69
2023/04/16 00:57:50;;;;;;;18.00;11.45;;;27.90;99.90;;;;;;5033124;28;20373;-70
2023/04/16 01:00:16;;;;;;;14.73;11.50;;;27.90;99.90;;;;;;5068868;28;20366;-70
2023/04/16 01:02:43;;;;;;;15.57;11.65;;;28.00;99.90;;;;;;5072711;28;20369;-70
2023/04/16 01:05:10;;;;;;;146.02;104.57;;;28.10;99.90;;;;;;5072279;28;20398;-72
2023/04/16 01:07:36;;;;;;;83.90;61.30;;;28.20;99.90;;;;;;5071969;28;20757;-71
2023/04/16 01:10:03;;;;;;;370.03;289.93;;;28.30;99.90;;;;;;5072550;28;20401;-68
2023/04/16 01:12:31;;;;;;;188.82;138.65;;;28.30;99.90;;;;;;5072654;28;20456;-69
2023/04/16 01:14:58;;;;;;;36.53;28.52;;;28.40;99.90;;;;;;5072662;28;20366;-70
2023/04/16 01:17:24;;;;;;;17.17;13.03;;;28.50;99.90;;;;;;5072562;28;20412;-67
2023/04/16 01:19:51;;;;;;;34.40;25.23;;;28.50;99.90;;;;;;5072596;28;20373;-70
2023/04/16 01:22:17;;;;;;;89.60;66.67;;;28.60;99.90;;;;;;5072464;28;20358;-69
2023/04/16 01:24:45;;;;;;;15.25;10.13;;;28.60;99.90;;;;;;5072500;28;20385;-70
2023/04/16 01:27:11;;;;;;;14.30;10.10;;;28.70;99.90;;;;;;5072483;28;20396;-70
2023/04/16 01:29:37;;;;;;;15.07;11.80;;;28.70;99.90;;;;;;5062921;28;20375;-70
2023/04/16 01:32:04;;;;;;;14.35;9.68;;;28.80;99.90;;;;;;5052493;28;20386;-70
2023/04/16 01:34:31;;;;;;;12.17;8.70;;;28.80;99.90;;;;;;5052311;28;20733;-70
2023/04/16 01:36:57;;;;;;;12.23;8.27;;;28.80;99.90;;;;;;5052351;28;20359;-70
2023/04/16 01:39:24;;;;;;;12.93;9.00;;;28.90;99.90;;;;;;5052028;28;20367;-70
2023/04/16 01:41:50;;;;;;;13.65;7.97;;;28.90;99.90;;;;;;5052179;28;20374;-69
2023/04/16 01:44:17;;;;;;;86.70;68.18;;;28.90;99.90;;;;;;5052134;28;20391;-69
2023/04/16 01:46:44;;;;;;;900.67;728.97;;;29.00;99.90;;;;;;5052168;28;20752;-70
2023/04/16 01:49:10;;;;;;;624.38;477.58;;;29.00;99.90;;;;;;5051854;28;20359;-69
2023/04/16 01:51:37;;;;;;;11.52;8.18;;;29.00;99.90;;;;;;5052092;28;20435;-70
2023/04/16 01:54:03;;;;;;;16.50;10.82;;;29.10;99.90;;;;;;5052186;28;20443;-70
2023/04/16 01:56:30;;;;;;;726.67;577.17;;;29.10;99.90;;;;;;5052202;28;20378;-69
2023/04/16 01:58:56;;;;;;;463.17;348.27;;;29.10;99.90;;;;;;5052088;28;20364;-66
2023/04/16 02:01:23;;;;;;;206.77;147.00;;;29.20;99.90;;;;;;5052205;28;20379;-66
2023/04/16 02:03:51;;;;;;;195.80;146.98;;;29.30;99.90;;;;;;5051689;28;20906;-67
2023/04/16 02:06:18;;;;;;;27.77;16.48;;;29.40;99.90;;;;;;5048137;28;20391;-66
2023/04/16 02:08:44;;;;;;;1400.80;999.90;;;29.30;99.90;;;;;;5045574;28;20363;-67
2023/04/16 02:11:11;;;;;;;391.20;347.60;;;29.30;99.90;;;;;;5031806;28;20394;-66
2023/04/16 02:13:37;;;;;;;944.30;787.22;;;29.30;99.90;;;;;;5031897;28;20385;-66
2023/04/16 02:16:04;;;;;;;91.20;60.50;;;29.40;99.90;;;;;;5031904;28;20377;-66
2023/04/16 02:18:30;;;;;;;20.25;13.15;;;29.40;99.90;;;;;;5032067;28;20424;-66
2023/04/16 02:20:59;;;;;;;10.02;8.15;;;29.50;99.90;;;;;;5045082;28;20435;-66
2023/04/16 02:23:26;;;;;;;244.00;198.05;;;29.50;99.90;;;;;;5071812;28;20362;-66
2023/04/16 02:25:52;;;;;;;580.60;454.05;;;29.50;99.90;;;;;;5066868;28;20400;-66
2023/04/16 02:28:19;;;;;;;474.63;401.20;;;29.60;99.90;;;;;;5062109;28;20444;-66
2023/04/16 02:30:45;;;;;;;213.80;132.50;;;29.60;99.90;;;;;;5054633;28;20366;-67
2023/04/16 02:33:12;;;;;;;20.63;13.65;;;29.60;99.90;;;;;;5051719;28;20367;-66
2023/04/16 02:35:40;;;;;;;17.80;12.93;;;29.70;99.90;;;;;;5051722;28;20379;-67
2023/04/16 02:38:07;;;;;;;13.70;10.65;;;29.70;99.90;;;;;;5051916;28;20375;-67
2023/04/16 02:40:34;;;;;;;16.10;11.07;;;29.70;99.90;;;;;;5058761;28;20403;-66
2023/04/16 02:43:00;;;;;;;15.35;11.15;;;29.70;99.90;;;;;;5060564;28;20384;-66
2023/04/16 02:45:27;;;;;;;20.15;12.48;;;29.70;99.90;;;;;;5062252;28;20397;-67
2023/04/16 02:47:54;;;;;;;27.45;20.15;;;29.70;99.90;;;;;;5061169;28;20818;-66
2023/04/16 02:50:20;;;;;;;21.45;16.13;;;29.70;99.90;;;;;;5059746;28;20361;-67
2023/04/16 02:52:47;;;;;;;173.40;112.57;;;29.80;99.90;;;;;;5063093;28;20777;-66
2023/04/16 02:55:13;;;;;;;470.85;346.08;;;29.90;99.90;;;;;;5064701;28;20405;-66
2023/04/16 02:57:41;;;;;;;113.25;77.40;;;29.80;99.90;;;;;;5064117;28;20509;-67
2023/04/16 03:00:08;;;;;;;443.02;329.25;;;29.90;99.90;;;;;;5066150;28;20905;-67
2023/04/16 03:02:34;;;;;;;378.70;275.58;;;29.80;99.90;;;;;;5063464;28;20868;-67
2023/04/16 03:05:01;;;;;;;19.88;15.40;;;29.90;99.90;;;;;;5057797;28;20409;-66
2023/04/16 03:07:28;;;;;;;18.30;13.13;;;29.90;99.90;;;;;;5061190;28;20371;-67
2023/04/16 03:09:54;;;;;;;63.90;32.88;;;29.90;99.90;;;;;;5064880;28;20365;-68
2023/04/16 03:12:21;;;;;;;24.58;16.67;;;29.90;99.90;;;;;;5065420;28;20510;-69
2023/04/16 03:14:49;;;;;;;24.77;11.90;;;30.00;99.90;;;;;;5063634;28;20378;-69
2023/04/16 03:17:16;;;;;;;50.33;35.75;;;30.00;99.90;;;;;;5063498;28;20403;-69
2023/04/16 03:19:42;;;;;;;49.40;33.90;;;30.10;99.90;;;;;;5063449;28;20499;-69
2023/04/16 03:22:09;;;;;;;32.42;23.15;;;30.10;99.90;;;;;;5065384;28;20362;-69
2023/04/16 03:24:36;;;;;;;19.15;14.55;;;30.10;99.90;;;;;;5062734;28;20385;-69
2023/04/16 03:27:02;;;;;;;18.10;11.57;;;30.20;99.90;;;;;;5065420;28;20437;-69
2023/04/16 03:29:29;;;;;;;12.77;9.98;;;30.30;99.90;;;;;;5061034;28;20716;-68
2023/04/16 03:31:56;;;;;;;14.85;10.15;;;30.40;99.90;;;;;;5064332;28;20358;-70
2023/04/16 03:34:22;;;;;;;24.90;18.80;;;30.50;99.90;;;;;;5062525;28;20467;-70
2023/04/16 03:36:49;;;;;;;21.48;16.25;;;30.50;99.90;;;;;;5057237;28;20469;-70
2023/04/16 03:39:16;;;;;;;19.23;14.90;;;30.70;99.90;;;;;;5057010;28;20398;-70
2023/04/16 03:41:42;;;;;;;28.20;18.45;;;30.70;99.90;;;;;;5065195;28;20372;-69
2023/04/16 03:44:09;;;;;;;13.48;9.23;;;30.70;99.90;;;;;;5060542;28;20395;-70
2023/04/16 03:46:35;;;;;;;12.77;9.10;;;30.70;99.90;;;;;;5064133;28;20363;-69
2023/04/16 03:49:02;;;;;;;16.63;8.80;;;30.90;99.90;;;;;;5064862;28;20429;-68
2023/04/16 03:51:28;;;;;;;13.18;9.35;;;30.90;99.90;;;;;;5060356;28;20417;-67
2023/04/16 03:53:55;;;;;;;12.98;7.68;;;31.00;99.90;;;;;;5064068;28;20830;-67
2023/04/16 03:56:21;;;;;;;15.00;7.72;;;31.00;99.90;;;;;;5064643;28;20702;-66
2023/04/16 03:58:48;;;;;;;12.07;7.55;;;31.00;99.90;;;;;;5074150;28;20374;-65
2023/04/16 04:01:14;;;;;;;12.60;7.85;;;31.10;99.90;;;;;;5066652;28;21014;-66
2023/04/16 04:03:41;;;;;;;13.45;7.88;;;31.10;99.90;;;;;;5062530;28;20382;-65
2023/04/16 04:06:08;;;;;;;11.40;7.93;;;31.20;99.90;;;;;;5062452;28;20920;-66
2023/04/16 04:08:34;;;;;;;10.98;7.32;;;31.20;99.90;;;;;;5063481;28;20374;-65
2023/04/16 04:11:01;;;;;;;12.13;6.68;;;31.30;99.90;;;;;;5064761;28;20366;-66
2023/04/16 04:13:27;;;;;;;11.00;6.97;;;31.40;99.90;;;;;;5063324;28;20360;-66
2023/04/16 04:15:54;;;;;;;10.38;7.80;;;31.40;99.90;;;;;;5063455;28;20894;-65
2023/04/16 04:18:20;;;;;;;64.15;43.20;;;31.50;99.90;;;;;;5064714;28;20366;-66
2023/04/16 04:20:47;;;;;;;12.75;7.72;;;31.60;99.90;;;;;;5061583;28;20360;-66
2023/04/16 04:23:14;;;;;;;11.63;7.57;;;31.60;99.90;;;;;;5053773;28;20384;-66
2023/04/16 04:25:40;;;;;;;9.70;7.10;;;31.60;99.90;;;;;;5053945;28;20954;-66
2023/04/16 04:28:07;;;;;;;9.93;6.78;;;31.60;99.90;;;;;;5053506;28;20399;-67
2023/04/16 04:30:34;;;;;;;11.73;7.43;;;31.60;99.90;;;;;;5053599;28;20725;-67
2023/04/16 04:33:01;;;;;;;11.50;6.70;;;31.60;99.90;;;;;;5053554;28;20375;-67
2023/04/16 04:35:27;;;;;;;12.48;8.05;;;31.70;99.90;;;;;;5036407;28;20393;-67
2023/04/16 04:37:54;;;;;;;14.45;8.43;;;31.80;99.90;;;;;;5033488;28;20365;-66
2023/04/16 04:40:21;;;;;;;10.23;7.30;;;31.90;99.90;;;;;;5033496;28;20373;-66
2023/04/16 04:42:47;;;;;;;8.90;6.47;;;32.00;99.90;;;;;;5033258;28;20873;-67
2023/04/16 04:45:14;;;;;;;11.43;6.95;;;31.90;99.90;;;;;;5049590;28;20397;-66
2023/04/16 04:47:40;;;;;;;7.88;6.38;;;32.00;99.90;;;;;;5063906;28;20723;-66
2023/04/16 04:50:07;;;;;;;12.88;7.13;;;32.00;99.90;;;;;;5062249;28;20710;-66
2023/04/16 04:52:34;;;;;;;12.55;6.82;;;32.00;99.90;;;;;;5062385;28;20401;-66
2023/04/16 04:55:00;;;;;;;16.35;11.07;;;32.20;99.90;;;;;;5064052;28;20403;-66
2023/04/16 04:57:27;;;;;;;12.13;8.35;;;32.30;99.90;;;;;;5062153;28;20382;-66
2023/04/16 04:59:53;;;;;;;8.68;6.03;;;32.30;99.90;;;;;;5062282;28;20369;-66
2023/04/16 05:02:20;;;;;;;7.22;5.45;;;32.20;99.90;;;;;;5063589;28;20930;-68
2023/04/16 05:04:46;;;;;;;37.13;33.13;;;32.20;99.90;;;;;;5063378;28;20890;-67
2023/04/16 05:07:13;;;;;;;262.13;183.32;;;32.20;99.90;;;;;;5063528;28;20373;-66
2023/04/16 05:09:39;;;;;;;10.35;7.35;;;32.20;99.90;;;;;;5063634;28;20901;-66
2023/04/16 05:12:06;;;;;;;42.15;35.90;;;32.40;99.90;;;;;;5061735;28;20368;-67
2023/04/16 05:14:32;;;;;;;9.38;5.30;;;32.50;99.90;;;;;;5061649;28;20423;-67
2023/04/16 05:16:59;;;;;;;10.68;5.45;;;32.70;99.90;;;;;;5060812;28;20360;-67
2023/04/16 05:19:25;;;;;;;6.82;5.13;;;32.80;99.90;;;;;;5064087;28;20386;-67
2023/04/16 05:21:52;;;;;;;7.25;4.97;;;32.80;99.90;;;;;;5064137;28;20360;-67
2023/04/16 05:24:19;;;;;;;6.95;5.30;;;32.80;99.90;;;;;;5061020;28;20376;-67
2023/04/16 05:26:46;;;;;;;5.93;5.20;;;32.90;99.90;;;;;;5062924;28;20358;-67
2023/04/16 05:29:12;;;;;;;8.20;5.10;;;32.90;99.90;;;;;;5067963;28;20432;-69
2023/04/16 05:31:39;;;;;;;22.48;18.25;;;33.00;99.90;;;;;;5066845;28;20383;-68
2023/04/16 05:34:05;;;;;;;23.47;18.13;;;33.10;99.90;;;;;;5059092;28;20382;-68
2023/04/16 05:36:32;;;;;;;7.90;5.30;;;33.20;99.90;;;;;;5052335;28;20452;-69
2023/04/16 05:38:58;;;;;;;11.60;9.57;;;33.20;99.90;;;;;;5058658;28;20397;-67
2023/04/16 05:41:25;;;;;;;6.07;4.67;;;33.20;99.90;;;;;;5065191;28;20376;-69
2023/04/16 05:43:51;;;;;;;9.00;5.20;;;33.30;99.90;;;;;;5067207;28;20362;-69
2023/04/16 05:46:18;;;;;;;7.50;4.97;;;33.30;99.90;;;;;;5066868;28;20765;-69
2023/04/16 05:48:44;;;;;;;10.10;5.70;;;33.40;99.90;;;;;;5066761;28;20370;-69
2023/04/16 05:51:11;;;;;;;8.32;5.50;;;33.50;99.90;;;;;;5066840;28;20360;-67
2023/04/16 05:53:37;;;;;;;9.15;5.75;;;33.50;99.90;;;;;;5066608;28;20375;-67
2023/04/16 05:56:04;;;;;;;7.40;5.93;;;33.60;99.90;;;;;;5066463;28;20369;-67
2023/04/16 05:58:31;;;;;;;7.78;5.60;;;33.50;99.90;;;;;;5066727;28;20766;-67
2023/04/16 06:00:57;;;;;;;9.23;5.50;;;33.40;99.90;;;;;;5066712;28;20478;-68
2023/04/16 06:03:24;;;;;;;8.50;6.35;;;33.30;99.90;;;;;;5066562;28;20486;-67
2023/04/16 06:05:50;;;;;;;8.88;6.45;;;33.40;99.90;;;;;;5066527;28;20476;-67
2023/04/16 06:08:17;;;;;;;9.95;6.28;;;33.40;99.90;;;;;;5066578;28;20371;-67
2023/04/16 06:10:46;;;;;;;10.07;6.43;;;33.40;99.90;;;;;;5066159;28;20362;-67
2023/04/16 06:13:12;;;;;;;12.13;9.60;;;33.50;99.90;;;;;;5060194;28;20377;-67
2023/04/16 06:15:39;;;;;;;9.85;6.03;;;33.40;99.90;;;;;;5053987;28;20380;-67
2023/04/16 06:18:05;;;;;;;10.65;5.80;;;33.40;99.90;;;;;;5050536;28;20371;-67
2023/04/16 06:20:32;;;;;;;8.27;5.63;;;33.40;99.90;;;;;;5048344;28;20953;-67
2023/04/16 06:22:59;;;;;;;8.90;5.70;;;33.40;99.90;;;;;;5052842;28;20374;-68
2023/04/16 06:25:25;;;;;;;6.83;5.77;;;33.60;99.90;;;;;;5053191;28;20388;-68
2023/04/16 06:27:52;;;;;;;7.73;6.00;;;33.60;99.90;;;;;;5056803;28;20392;-67
2023/04/16 06:30:18;;;;;;;8.03;6.30;;;33.70;99.90;;;;;;5058166;28;20540;-67
2023/04/16 06:32:45;;;;;;;9.05;6.55;;;33.70;99.90;;;;;;5069294;28;20368;-67
2023/04/16 06:35:12;;;;;;;9.23;6.78;;;33.70;99.90;;;;;;5044259;28;20369;-67
2023/04/16 06:37:38;;;;;;;9.00;6.43;;;33.70;99.90;;;;;;5042289;28;20383;-65
2023/04/16 06:40:05;;;;;;;9.38;6.95;;;33.70;99.90;;;;;;5043480;28;20385;-67
2023/04/16 06:42:32;;;;;;;9.23;6.63;;;33.70;99.90;;;;;;5066732;28;20385;-70
2023/04/16 06:44:58;;;;;;;9.50;6.72;;;33.80;99.90;;;;;;5039697;28;20404;-71
2023/04/16 06:47:25;;;;;;;8.25;6.40;;;33.90;99.90;;;;;;5040364;28;20421;-71
2023/04/16 06:49:52;;;;;;;8.80;6.68;;;33.90;99.90;;;;;;5055556;28;20370;-70
2023/04/16 06:52:19;;;;;;;8.60;6.38;;;33.90;99.90;;;;;;5055545;28;20364;-70
2023/04/16 06:54:45;;;;;;;8.18;6.90;;;33.90;99.90;;;;;;5055583;28;20364;-70
2023/04/16 06:57:11;;;;;;;6.83;5.80;;;34.00;99.90;;;;;;5055318;28;20364;-69
2023/04/16 06:59:38;;;;;;;8.03;6.43;;;34.00;99.90;;;;;;5055225;28;20360;-69
2023/04/16 07:02:05;;;;;;;8.37;6.80;;;34.10;99.90;;;;;;5055252;28;20752;-69
2023/04/16 07:04:32;;;;;;;9.00;6.95;;;34.10;99.90;;;;;;5052972;28;20486;-70
2023/04/16 07:06:58;;;;;;;9.48;6.90;;;34.10;99.90;;;;;;5051407;28;20467;-67
2023/04/16 07:09:26;;;;;;;8.10;6.45;;;34.10;99.90;;;;;;5051730;28;20907;-69
2023/04/16 07:11:53;;;;;;;10.00;6.60;;;34.10;99.90;;;;;;5051752;28;20360;-69
2023/04/16 07:14:20;;;;;;;7.23;6.30;;;34.10;99.90;;;;;;5051748;28;20816;-69
2023/04/16 07:16:46;;;;;;;9.13;6.13;;;34.10;99.90;;;;;;5051755;28;21062;-68
2023/04/16 07:19:13;;;;;;;8.47;6.53;;;34.10;99.90;;;;;;5052631;28;20799;-70
2023/04/16 07:21:42;;;;;;;7.47;6.53;;;34.20;99.90;;;;;;5054572;28;20402;-70
2023/04/16 07:24:10;;;;;;;10.05;6.75;;;34.30;99.90;;;;;;5054693;28;20439;-70
2023/04/16 07:26:37;;;;;;;8.30;6.53;;;34.30;99.90;;;;;;5054850;28;20352;-71
2023/04/16 07:29:03;;;;;;;7.60;6.70;;;34.30;99.90;;;;;;5054630;28;20752;-71
2023/04/16 07:31:30;;;;;;;8.45;6.40;;;34.30;99.90;;;;;;5036854;28;20381;-71
2023/04/16 07:33:57;;;;;;;10.55;7.40;;;34.40;99.90;;;;;;5034866;28;20353;-71
2023/04/16 07:36:26;;;;;;;10.20;7.63;;;34.40;99.90;;;;;;5034582;28;20445;-71
2023/04/16 07:38:52;;;;;;;9.10;6.47;;;34.40;99.90;;;;;;5037844;28;20368;-71
2023/04/16 07:41:19;;;;;;;9.63;6.88;;;34.30;99.90;;;;;;5054632;28;20804;-71
2023/04/16 07:43:45;;;;;;;8.70;6.77;;;34.30;99.90;;;;;;5054599;28;20364;-71
2023/04/16 07:46:12;;;;;;;9.57;6.65;;;34.40;99.90;;;;;;5052980;28;20384;-71
2023/04/16 07:48:38;;;;;;;8.38;6.43;;;34.50;99.90;;;;;;5034507;28;20369;-67
2023/04/16 07:51:05;;;;;;;7.75;6.88;;;34.60;99.90;;;;;;5034298;28;20361;-71
2023/04/16 07:53:32;;;;;;;9.13;6.38;;;34.60;99.90;;;;;;5034524;28;20435;-76
2023/04/16 07:55:58;;;;;;;9.55;6.88;;;34.60;99.90;;;;;;5034633;28;20372;-73
2023/04/16 07:58:25;;;;;;;9.65;6.70;;;34.60;99.90;;;;;;5035720;28;20365;-70
2023/04/16 08:00:51;;;;;;;11.05;8.02;;;34.50;99.90;;;;;;5054187;28;20384;-76
2023/04/16 08:03:18;;;;;;;7.88;7.03;;;34.50;99.90;;;;;;5054182;28;20364;-74
2023/04/16 08:05:44;;;;;;;10.98;7.63;;;34.50;99.90;;;;;;5053901;28;20438;-70
2023/04/16 08:08:11;;;;;;;9.13;7.25;;;34.50;99.90;;;;;;5054366;28;20837;-71
2023/04/16 08:10:38;;;;;;;9.18;7.40;;;34.40;99.90;;;;;;5054097;28;20371;-72
2023/04/16 08:13:05;;;;;;;10.77;7.88;;;34.40;99.90;;;;;;5053967;28;20396;-68
2023/04/16 08:15:31;;;;;;;10.02;7.10;;;34.30;99.90;;;;;;5053863;28;20414;-71
2023/04/16 08:17:58;;;;;;;10.15;7.82;;;34.30;99.90;;;;;;5053943;28;20367;-71
2023/04/16 08:20:25;;;;;;;9.70;7.00;;;34.30;99.90;;;;;;5048697;28;20373;-69
2023/04/16 08:22:53;;;;;;;10.48;7.22;;;34.30;99.90;;;;;;5033828;28;20365;-71
2023/04/16 08:25:21;;;;;;;11.00;7.93;;;34.30;99.90;;;;;;5033794;28;20462;-71
2023/04/16 08:27:48;;;;;;;14.25;7.90;;;34.20;99.90;;;;;;5048438;28;20416;-71
2023/04/16 08:30:15;;;;;;;12.40;7.93;;;34.20;99.90;;;;;;5053663;28;20352;-70
2023/04/16 08:32:42;;;;;;;10.63;8.10;;;34.10;99.90;;;;;;5053632;28;20441;-70
2023/04/16 08:35:09;;;;;;;14.70;7.60;;;33.90;99.90;;;;;;5053596;28;20363;-70
2023/04/16 08:37:36;;;;;;;9.48;6.68;;;33.50;99.90;;;;;;5053325;28;20833;-70
2023/04/16 08:40:02;;;;;;;9.48;6.75;;;33.10;99.90;;;;;;5053763;28;20379;-70
2023/04/16 08:42:31;;;;;;;10.85;7.13;;;32.70;99.90;;;;;;5053508;28;20370;-70
2023/04/16 08:45:14;;;;;;;9.07;6.28;;;32.40;99.90;;;;;;5053183;28;20402;-70
2023/04/16 08:47:46;;;;;;;10.52;7.22;;;32.10;99.90;;;;;;5053354;28;20391;-70
2023/04/16 08:50:17;;;;;;;67.10;28.80;;;32.00;99.90;;;;;;5052298;28;20425;-71
2023/04/16 08:52:51;;;;;;;40.00;16.77;;;31.70;99.90;;;;;;5053318;28;20360;-70
2023/04/16 08:55:40;;;;;;;14.82;7.80;;;31.20;99.90;;;;;;5052976;28;20368;-69
2023/04/16 08:58:21;;;;;;;11.57;5.57;;;30.80;99.90;;;;;;5053111;28;20422;-70
2023/04/16 09:00:48;;;;;;;21.80;4.20;;;30.60;99.90;;;;;;5053323;28;20355;-70
2023/04/16 09:03:15;;;;;;;9.97;3.33;;;30.30;99.90;;;;;;5053067;28;20379;-71
2023/04/16 09:05:42;;;;;;;6.75;3.00;;;30.00;99.90;;;;;;5052770;28;20441;-71
2023/04/16 09:08:09;;;;;;;9.00;3.35;;;30.00;99.90;;;;;;5052854;28;20360;-70
2023/04/16 09:10:36;;;;;;;7.70;3.58;;;30.00;99.90;;;;;;5052926;28;20368;-73
2023/04/16 09:13:02;;;;;;;8.75;4.00;;;30.10;99.90;;;;;;5053260;28;20360;-74
2023/04/16 09:15:29;;;;;;;8.45;3.10;;;30.10;99.90;;;;;;5036710;28;20373;-72
2023/04/16 09:17:56;;;;;;;10.83;4.13;;;30.00;99.90;;;;;;5032979;28;20373;-70
2023/04/16 09:20:23;;;;;;;8.82;4.85;;;30.00;99.90;;;;;;5033238;28;20366;-71
2023/04/16 09:22:49;;;;;;;6.47;3.95;;;29.90;99.90;;;;;;5032806;28;20373;-69
2023/04/16 09:25:16;;;;;;;17.80;12.50;;;29.70;99.90;;;;;;5032932;28;20870;-70
2023/04/16 09:27:43;;;;;;;9.88;4.32;;;29.60;99.90;;;;;;5032951;28;20839;-69
2023/04/16 09:30:21;;;;;;;8.52;3.03;;;29.40;99.90;;;;;;5032759;28;20846;-68
2023/04/16 09:32:49;;;;;;;8.82;3.80;;;29.20;99.90;;;;;;5032611;28;20400;-70
2023/04/16 09:35:18;;;;;;;6.53;4.03;;;29.10;99.90;;;;;;5032417;28;20711;-69
2023/04/16 09:37:56;;;;;;;9.45;5.05;;;29.10;99.90;;;;;;5032524;28;20361;-71
2023/04/16 09:40:26;;;;;;;14.07;6.38;;;29.00;99.90;;;;;;5032504;28;20381;-71
2023/04/16 09:42:57;;;;;;;9.63;6.20;;;29.00;99.90;;;;;;5032346;28;20427;-71
2023/04/16 09:45:24;;;;;;;11.43;6.40;;;29.00;99.90;;;;;;5032304;28;20737;-70
2023/04/16 09:47:50;;;;;;;10.68;5.47;;;29.00;99.90;;;;;;5032277;28;20777;-69
2023/04/16 09:50:19;;;;;;;6.53;3.90;;;28.90;99.90;;;;;;5032203;28;20373;-70
2023/04/16 09:52:50;;;;;;;8.90;4.00;;;28.80;99.90;;;;;;5032236;28;20456;-71
2023/04/16 09:55:21;;;;;;;11.30;4.05;;;28.70;99.90;;;;;;5032228;28;20785;-71
2023/04/16 09:57:48;;;;;;;8.57;4.53;;;28.70;99.90;;;;;;5032244;28;20365;-71
2023/04/16 10:00:18;;;;;;;7.82;4.03;;;28.70;99.90;;;;;;5032104;28;20853;-71
2023/04/16 10:02:45;;;;;;;6.47;2.70;;;28.60;99.90;;;;;;5032148;28;20368;-71
2023/04/16 10:05:17;;;;;;;7.13;3.15;;;28.60;99.90;;;;;;5032134;28;20404;-72
2023/04/16 10:07:44;;;;;;;6.82;3.03;;;28.50;99.90;;;;;;5032486;28;20871;-72
2023/04/16 10:10:10;;;;;;;9.55;3.05;;;28.60;99.90;;;;;;5032336;28;20358;-72
2023/04/16 10:12:37;;;;;;;5.47;3.07;;;28.70;99.90;;;;;;5032159;28;20362;-71
2023/04/16 10:15:04;;;;;;;4.70;3.00;;;28.60;99.90;;;;;;5032246;28;20373;-70
2023/04/16 10:17:31;;;;;;;9.25;3.90;;;28.50;99.90;;;;;;5031973;28;20396;-71
2023/04/16 10:20:00;;;;;;;10.20;4.65;;;28.40;99.90;;;;;;5032144;28;20380;-72
2023/04/16 10:22:26;;;;;;;9.35;4.40;;;28.20;99.90;;;;;;5031996;28;20443;-72
2023/04/16 10:24:53;;;;;;;11.02;4.80;;;28.10;99.90;;;;;;5031760;28;20416;-72
2023/04/16 10:27:20;;;;;;;8.40;3.80;;;28.20;99.90;;;;;;5031958;28;20700;-72
2023/04/16 10:29:48;;;;;;;7.53;3.70;;;28.10;99.90;;;;;;5039064;28;20375;-72
2023/04/16 10:32:16;;;;;;;5.25;3.40;;;28.10;99.90;;;;;;5051765;28;20425;-71
2023/04/16 10:34:43;;;;;;;9.43;4.20;;;28.20;99.90;;;;;;5052038;28;20450;-70
2023/04/16 10:37:09;;;;;;;7.37;3.50;;;28.30;99.90;;;;;;5052194;28;20769;-70
2023/04/16 10:39:36;;;;;;;6.50;3.50;;;28.30;99.90;;;;;;5051561;28;20364;-70
2023/04/16 10:42:12;;;;;;;5.35;3.00;;;28.20;99.90;;;;;;5052093;28;20856;-70
2023/04/16 10:44:40;;;;;;;9.70;3.37;;;28.40;99.90;;;;;;5051685;28;20422;-70
2023/04/16 10:47:15;;;;;;;5.35;3.10;;;28.40;99.90;;;;;;5051647;28;20368;-70
2023/04/16 10:49:44;;;;;;;7.47;3.78;;;28.50;99.90;;;;;;5051800;28;20364;-70
2023/04/16 10:52:13;;;;;;;7.80;3.67;;;28.60;99.90;;;;;;5051612;28;20832;-70
2023/04/16 10:54:40;;;;;;;7.07;3.63;;;28.60;99.90;;;;;;5051606;28;20395;-70
2023/04/16 10:57:11;;;;;;;9.88;4.38;;;28.70;99.90;;;;;;5051572;28;20380;-69
2023/04/16 10:59:41;;;;;;;7.95;3.92;;;28.70;99.90;;;;;;5051356;28;20391;-70
2023/04/16 11:02:17;;;;;;;7.80;4.10;;;28.70;99.90;;;;;;5051475;28;20370;-69
2023/04/16 11:04:47;;;;;;;5.25;3.75;;;28.60;99.90;;;;;;5051225;28;20482;-69
2023/04/16 11:07:16;;;;;;;6.38;3.60;;;28.60;99.90;;;;;;5051634;28;20379;-70
2023/04/16 11:09:56;;;;;;;8.73;3.30;;;28.70;99.90;;;;;;5051598;28;20733;-69
2023/04/16 11:12:26;;;;;;;7.00;4.50;;;28.70;99.90;;;;;;5053061;28;20366;-69
2023/04/16 11:14:58;;;;;;;8.25;4.05;;;28.70;99.90;;;;;;5055472;28;20717;-69
2023/04/16 11:17:29;;;;;;;16.98;7.78;;;28.80;99.90;;;;;;5055281;28;20422;-68
2023/04/16 11:19:55;;;;;;;27.15;12.35;;;28.80;99.90;;;;;;5054993;28;20399;-69
2023/04/16 11:22:22;;;;;;;24.35;12.40;;;28.70;99.90;;;;;;5055029;28;20413;-70
2023/04/16 11:24:56;;;;;;;23.50;11.80;;;28.60;99.90;;;;;;5054751;28;20398;-69
2023/04/16 11:27:24;;;;;;;26.55;12.93;;;28.70;99.90;;;;;;5054977;28;20872;-69
2023/04/16 11:30:04;;;;;;;27.98;11.77;;;28.60;99.90;;;;;;5054905;28;20375;-70
2023/04/16 11:32:33;;;;;;;23.70;10.07;;;28.60;99.90;;;;;;5054805;28;20856;-69
2023/04/16 11:35:11;;;;;;;24.33;10.60;;;28.60;99.90;;;;;;5054688;28;20368;-69
2023/04/16 11:37:38;;;;;;;19.52;9.15;;;28.60;99.90;;;;;;5043564;28;20392;-70
2023/04/16 11:40:07;;;;;;;10.80;6.15;;;28.60;99.90;;;;;;5044337;28;20422;-66
2023/04/16 11:42:39;;;;;;;16.87;6.87;;;28.50;99.90;;;;;;5038934;28;20782;-65
2023/04/16 11:45:07;;;;;;;12.43;5.68;;;28.40;99.90;;;;;;5042945;28;20398;-66
2023/04/16 11:47:50;;;;;;;9.10;5.57;;;28.40;99.90;;;;;;5047384;28;20390;-65
2023/04/16 11:50:27;;;;;;;10.05;5.85;;;28.30;99.90;;;;;;5039455;28;20452;-66
2023/04/16 11:52:57;;;;;;;9.27;5.55;;;28.40;99.90;;;;;;5055173;28;20459;-65
2023/04/16 11:55:24;;;;;;;12.68;6.22;;;28.40;99.90;;;;;;5061629;28;20453;-65
2023/04/16 11:57:51;;;;;;;8.50;5.95;;;28.40;99.90;;;;;;5058034;28;20391;-66
2023/04/16 12:00:17;;;;;;;10.73;5.53;;;28.40;99.90;;;;;;5049313;28;20433;-66
2023/04/16 12:02:50;;;;;;;11.60;5.85;;;28.30;99.90;;;;;;5063716;28;20414;-66
2023/04/16 12:05:37;;;;;;;12.95;6.82;;;28.30;99.90;;;;;;5063843;28;20841;-66
2023/04/16 12:08:06;;;;;;;10.15;6.35;;;28.30;99.90;;;;;;5060421;28;20839;-66
2023/04/16 12:10:36;;;;;;;11.85;6.35;;;28.30;99.90;;;;;;5063628;28;20769;-66
2023/04/16 12:13:12;;;;;;;14.02;7.82;;;28.30;99.90;;;;;;5063946;28;20416;-67
2023/04/16 12:15:45;;;;;;;15.18;8.45;;;28.30;99.90;;;;;;5061370;28;20599;-68
2023/04/16 12:18:13;;;;;;;14.68;7.80;;;28.20;99.90;;;;;;5060782;28;20364;-66
2023/04/16 12:20:40;;;;;;;13.13;7.50;;;28.10;99.90;;;;;;5060822;28;20470;-65
2023/04/16 12:23:07;;;;;;;14.73;8.55;;;28.10;99.90;;;;;;5054126;28;20392;-66
2023/04/16 12:25:34;;;;;;;24.10;11.80;;;28.10;99.90;;;;;;5062741;28;20441;-66
2023/04/16 12:28:01;;;;;;;17.63;9.67;;;28.00;99.90;;;;;;5056847;28;20490;-66
2023/04/16 12:30:29;;;;;;;15.35;9.52;;;28.00;99.90;;;;;;5042388;28;20466;-68
2023/04/16 12:33:16;;;;;;;17.77;10.32;;;28.00;99.90;;;;;;5038511;28;20365;-67
2023/04/16 12:35:43;;;;;;;20.17;10.00;;;28.20;99.90;;;;;;5045849;28;20385;-67
2023/04/16 12:38:10;;;;;;;20.75;10.50;;;28.20;99.90;;;;;;5049908;28;20385;-66